Time;durP1;ratioP1;P1;durP2;ratioP2;P2;SDS_P1;SDS_P2;PMS_P1;PMS_P2;Temp;Humidity;BMP_temperature;BMP_pressure;BME280_temperature;BME280_humidity;BME280_pressure;Samples;Min_cycle;Max_cycle;Signal;HPM_P1;HPM_P2
2021/08/14 00:02:15;;;;;;;;;;;;;;;25.95;44.59;101640.22;5051730;27;98941;-75
2021/08/14 00:04:42;;;;;;;;;;;;;;;26.62;43.08;101635.22;5046822;27;99481;-74
2021/08/14 00:07:08;;;;;;;;;;;;;;;26.76;42.38;101632.13;5052372;27;97076;-74
2021/08/14 00:09:34;;;;;;;;;;;;;;;26.58;42.33;101640.03;5057731;27;96818;-74
2021/08/14 00:12:01;;;;;;;;;;;;;;;26.20;43.29;101637.09;5057529;27;99175;-73
2021/08/14 00:14:27;;;;;;;;;;;;;;;26.58;42.37;101647.34;5057091;27;97708;-73
2021/08/14 00:16:53;;;;;;;;;;;;;;;26.39;42.69;101645.38;5056445;27;98458;-74
2021/08/14 00:19:21;;;;;;;;;;;;;;;26.36;42.19;101645.66;5055525;27;99458;-74
2021/08/14 00:21:47;;;;;;;;;;;;;;;26.54;41.82;101643.16;5055873;27;98940;-74
2021/08/14 00:24:14;;;;;;;;;;;;;;;26.44;41.77;101648.56;5055949;27;99006;-74
2021/08/14 00:26:40;;;;;;;;;;;;;;;26.57;41.11;101640.19;5055624;27;96873;-74
2021/08/14 00:29:06;;;;;;;;;;;;;;;26.22;41.39;101651.38;5055949;27;97196;-75
2021/08/14 00:31:32;;;;;;;;;;;;;;;26.30;41.06;101657.03;5055419;27;99032;-74
2021/08/14 00:33:59;;;;;;;;;;;;;;;25.68;42.58;101654.28;5054978;27;99143;-75
2021/08/14 00:36:26;;;;;;;;;;;;;;;26.08;41.65;101658.00;5055463;27;96846;-74
2021/08/14 00:38:52;;;;;;;;;;;;;;;26.17;41.27;101653.63;5056564;27;97064;-74
2021/08/14 00:41:19;;;;;;;;;;;;;;;26.03;41.32;101651.25;5054709;27;98826;-74
2021/08/14 00:43:45;;;;;;;;;;;;;;;25.84;41.91;101652.00;5055886;27;98824;-74
2021/08/14 00:46:12;;;;;;;;;;;;;;;26.05;41.56;101652.00;5055277;27;97939;-74
2021/08/14 00:48:38;;;;;;;;;;;;;;;25.76;42.25;101657.19;5054194;27;97469;-73
2021/08/14 00:51:06;;;;;;;;;;;;;;;26.10;41.49;101664.16;5055799;27;97953;-73
2021/08/14 00:53:34;;;;;;;;;;;;;;;26.33;40.85;101662.16;5055416;27;98793;-73
2021/08/14 00:56:01;;;;;;;;;;;;;;;26.22;41.51;101659.50;5056316;27;97099;-74
2021/08/14 00:58:27;;;;;;;;;;;;;;;25.97;42.01;101659.91;5055254;27;97321;-74
2021/08/14 01:00:55;;;;;;;;;;;;;;;26.13;41.61;101657.59;5056277;27;99077;-73
2021/08/14 01:03:21;;;;;;;;;;;;;;;25.95;41.66;101667.31;5051834;27;98572;-73
2021/08/14 01:05:47;;;;;;;;;;;;;;;25.68;42.43;101659.69;5056316;27;96757;-74
2021/08/14 01:08:14;;;;;;;;;;;;;;;25.59;43.06;101655.94;5056434;27;96862;-74
2021/08/14 01:10:42;;;;;;;;;;;;;;;25.83;42.61;101665.66;5054912;27;98874;-74
2021/08/14 01:13:08;;;;;;;;;;;;;;;25.61;43.01;101659.34;5055974;27;98938;-73
2021/08/14 01:15:35;;;;;;;;;;;;;;;25.84;42.55;101664.66;5055965;27;97094;-73
2021/08/14 01:18:01;;;;;;;;;;;;;;;25.88;42.17;101661.56;5056220;27;96927;-74
2021/08/14 01:20:27;;;;;;;;;;;;;;;25.54;43.56;101668.06;5055797;27;99352;-73
2021/08/14 01:22:54;;;;;;;;;;;;;;;25.72;42.84;101669.28;5055544;27;98844;-74
2021/08/14 01:25:20;;;;;;;;;;;;;;;25.47;43.91;101661.47;5055931;27;96823;-73
2021/08/14 01:27:48;;;;;;;;;;;;;;;25.19;44.25;101668.31;5054839;27;97028;-74
2021/08/14 01:30:14;;;;;;;;;;;;;;;25.39;44.14;101668.38;5053586;27;98983;-74
2021/08/14 01:32:41;;;;;;;;;;;;;;;24.87;45.10;101677.19;5055493;27;99028;-73
2021/08/14 01:35:08;;;;;;;;;;;;;;;25.22;44.66;101673.44;5054862;27;96725;-73
2021/08/14 01:37:34;;;;;;;;;;;;;;;25.25;44.31;101670.50;5054641;27;97556;-74
2021/08/14 01:40:01;;;;;;;;;;;;;;;25.09;44.90;101675.44;5053865;27;98991;-74
2021/08/14 01:42:27;;;;;;;;;;;;;;;25.23;44.85;101683.28;5055418;27;99133;-74
2021/08/14 01:44:55;;;;;;;;;;;;;;;25.09;45.22;101679.00;5053575;27;96874;-74
2021/08/14 01:47:21;;;;;;;;;;;;;;;25.31;44.77;101678.13;5053786;27;98305;-74
2021/08/14 01:49:47;;;;;;;;;;;;;;;24.57;46.36;101671.50;5053957;27;99139;-73
2021/08/14 01:52:15;;;;;;;;;;;;;;;24.46;46.80;101674.22;5055107;27;99120;-74
2021/08/14 01:54:41;;;;;;;;;;;;;;;25.02;45.40;101669.69;5054592;27;96781;-74
2021/08/14 01:57:08;;;;;;;;;;;;;;;25.11;45.03;101673.47;5053643;27;96925;-74
2021/08/14 01:59:35;;;;;;;;;;;;;;;25.07;45.59;101674.72;5054228;27;99233;-74
2021/08/14 02:02:03;;;;;;;;;;;;;;;25.00;45.56;101680.63;5054997;27;98965;-74
2021/08/14 02:04:29;;;;;;;;;;;;;;;24.55;46.82;101685.13;5057068;27;97026;-74
2021/08/14 02:06:55;;;;;;;;;;;;;;;24.77;46.39;101672.63;5054830;27;96968;-74
2021/08/14 02:09:22;;;;;;;;;;;;;;;24.89;46.34;101677.94;5054849;27;98838;-74
2021/08/14 02:11:48;;;;;;;;;;;;;;;24.99;46.05;101678.91;5054837;27;99247;-74
2021/08/14 02:14:14;;;;;;;;;;;;;;;24.80;46.60;101675.94;5052717;27;97052;-74
2021/08/14 02:16:40;;;;;;;;;;;;;;;24.77;46.45;101678.88;5052005;27;96947;-74
2021/08/14 02:19:08;;;;;;;;;;;;;;;24.76;46.33;101671.75;5050795;27;99397;-74
2021/08/14 02:21:34;;;;;;;;;;;;;;;24.84;46.14;101668.44;5053541;27;99255;-74
2021/08/14 02:24:01;;;;;;;;;;;;;;;24.63;46.45;101677.28;5053671;27;97039;-74
2021/08/14 02:26:27;;;;;;;;;;;;;;;24.28;47.29;101681.94;5054732;27;96825;-74
2021/08/14 02:28:54;;;;;;;;;;;;;;;24.73;46.42;101681.97;5053912;27;97878;-74
2021/08/14 02:31:21;;;;;;;;;;;;;;;24.89;45.93;101677.03;5054516;27;98868;-74
2021/08/14 02:33:47;;;;;;;;;;;;;;;24.68;46.33;101679.63;5053546;27;97051;-74
2021/08/14 02:36:15;;;;;;;;;;;;;;;24.63;46.40;101684.53;5056415;27;96817;-74
2021/08/14 02:38:41;;;;;;;;;;;;;;;24.56;46.44;101686.88;5055233;27;99060;-74
2021/08/14 02:41:08;;;;;;;;;;;;;;;24.27;47.01;101691.00;5053395;27;98036;-74
2021/08/14 02:43:35;;;;;;;;;;;;;;;24.56;46.52;101684.16;5051892;27;98289;-74
2021/08/14 02:46:01;;;;;;;;;;;;;;;24.43;46.65;101680.72;5054404;27;96918;-74
2021/08/14 02:48:28;;;;;;;;;;;;;;;24.30;46.85;101679.09;5053528;27;99046;-74
2021/08/14 02:50:54;;;;;;;;;;;;;;;24.75;45.71;101685.38;5053585;27;99331;-74
2021/08/14 02:53:22;;;;;;;;;;;;;;;24.66;45.83;101686.16;5052625;27;97262;-74
2021/08/14 02:55:48;;;;;;;;;;;;;;;24.68;45.98;101692.28;5054758;27;97328;-74
2021/08/14 02:58:14;;;;;;;;;;;;;;;24.76;45.41;101684.41;5053507;27;98913;-73
2021/08/14 03:00:40;;;;;;;;;;;;;;;24.58;45.90;101675.94;5053895;27;97807;-73
2021/08/14 03:03:07;;;;;;;;;;;;;;;24.48;46.38;101677.66;5053974;27;96838;-73
2021/08/14 03:05:33;;;;;;;;;;;;;;;24.60;46.05;101676.69;5053147;27;96899;-73
2021/08/14 03:07:59;;;;;;;;;;;;;;;24.71;45.41;101671.28;5054174;27;99269;-73
2021/08/14 03:10:27;;;;;;;;;;;;;;;24.39;46.20;101678.38;5053551;27;99014;-73
2021/08/14 03:12:53;;;;;;;;;;;;;;;24.42;45.86;101676.28;5053060;27;98773;-73
2021/08/14 03:15:19;;;;;;;;;;;;;;;24.37;45.83;101680.34;5052310;27;97029;-73
2021/08/14 03:17:46;;;;;;;;;;;;;;;24.23;45.92;101678.72;5050862;27;99205;-73
2021/08/14 03:20:12;;;;;;;;;;;;;;;24.15;46.16;101687.41;5051804;27;98961;-73
2021/08/14 03:22:39;;;;;;;;;;;;;;;23.80;47.12;101692.81;5054471;27;96853;-74
2021/08/14 03:25:06;;;;;;;;;;;;;;;24.19;46.25;101688.91;5053507;27;97159;-73
2021/08/14 03:27:33;;;;;;;;;;;;;;;24.23;45.82;101695.78;5053916;27;98983;-74
2021/08/14 03:30:00;;;;;;;;;;;;;;;24.23;45.65;101700.31;5047154;27;98797;-73
2021/08/14 03:32:26;;;;;;;;;;;;;;;24.41;45.38;101687.22;5054109;27;96699;-74
2021/08/14 03:34:52;;;;;;;;;;;;;;;24.52;44.99;101695.34;5053561;27;96926;-74
2021/08/14 03:37:18;;;;;;;;;;;;;;;24.59;44.57;101694.75;5054340;27;98884;-76
2021/08/14 03:39:45;;;;;;;;;;;;;;;24.47;44.83;101694.84;5045973;27;98915;-73
2021/08/14 03:42:11;;;;;;;;;;;;;;;24.37;45.26;101693.84;5057693;27;97036;-73
2021/08/14 03:44:38;;;;;;;;;;;;;;;24.57;44.90;101693.13;5049782;27;98982;-73
2021/08/14 03:47:05;;;;;;;;;;;;;;;24.56;44.85;101694.97;5053915;27;98985;-75
2021/08/14 03:49:31;;;;;;;;;;;;;;;24.17;45.31;101698.94;5052028;27;97695;-74
2021/08/14 03:51:58;;;;;;;;;;;;;;;24.43;45.05;101694.22;5053069;27;96963;-74
2021/08/14 03:54:26;;;;;;;;;;;;;;;24.08;45.80;101702.34;5052766;27;97195;-74
2021/08/14 03:56:55;;;;;;;;;;;;;;;24.43;44.98;101696.06;5049756;27;99677;-75
2021/08/14 03:59:22;;;;;;;;;;;;;;;24.37;45.06;101692.00;5053875;27;98866;-75
2021/08/14 04:01:49;;;;;;;;;;;;;;;24.59;44.64;101696.56;5048349;27;97559;-74
2021/08/14 04:04:15;;;;;;;;;;;;;;;24.44;45.14;101705.88;5054045;27;96802;-75
2021/08/14 04:06:42;;;;;;;;;;;;;;;24.54;44.82;101715.00;5051907;27;99092;-75
2021/08/14 04:09:08;;;;;;;;;;;;;;;24.46;44.58;101706.63;5054326;27;99394;-75
2021/08/14 04:11:34;;;;;;;;;;;;;;;24.49;44.70;101703.69;5051854;27;96835;-74
2021/08/14 04:14:00;;;;;;;;;;;;;;;24.43;45.20;101713.13;5051933;27;97142;-75
2021/08/14 04:16:27;;;;;;;;;;;;;;;24.08;45.86;101712.28;5053124;27;98934;-74
2021/08/14 04:18:54;;;;;;;;;;;;;;;24.35;45.23;101703.94;5049373;27;98172;-74
2021/08/14 04:21:20;;;;;;;;;;;;;;;24.42;44.89;101710.53;5051530;27;96882;-74
2021/08/14 04:23:47;;;;;;;;;;;;;;;24.56;44.61;101702.22;5052854;27;96804;-73
2021/08/14 04:26:13;;;;;;;;;;;;;;;24.55;44.96;101722.09;5052617;27;98889;-74
2021/08/14 04:28:39;;;;;;;;;;;;;;;24.63;44.32;101720.53;5051815;27;98830;-73
2021/08/14 04:31:05;;;;;;;;;;;;;;;24.62;44.37;101723.34;5054616;27;96890;-73
2021/08/14 04:33:31;;;;;;;;;;;;;;;24.54;44.53;101726.69;5056984;27;96926;-73
2021/08/14 04:35:59;;;;;;;;;;;;;;;24.31;44.90;101730.28;5055478;27;98962;-72
2021/08/14 04:38:25;;;;;;;;;;;;;;;24.39;44.73;101729.72;5056768;27;98833;-74
2021/08/14 04:40:51;;;;;;;;;;;;;;;24.42;44.63;101737.56;5055363;27;96819;-74
2021/08/14 04:43:18;;;;;;;;;;;;;;;24.24;44.98;101731.75;5055821;27;97245;-74
2021/08/14 04:45:44;;;;;;;;;;;;;;;23.89;45.86;101736.28;5057475;27;99023;-74
2021/08/14 04:48:10;;;;;;;;;;;;;;;24.25;45.19;101725.38;5055081;27;99177;-74
2021/08/14 04:50:36;;;;;;;;;;;;;;;24.51;44.38;101720.63;5054393;27;97001;-75
2021/08/14 04:53:04;;;;;;;;;;;;;;;24.40;44.65;101723.31;5054129;27;97348;-75
2021/08/14 04:55:30;;;;;;;;;;;;;;;24.36;44.65;101716.41;5056547;27;99265;-74
2021/08/14 04:57:56;;;;;;;;;;;;;;;24.53;44.18;101719.53;5055875;27;97580;-74
2021/08/14 05:00:22;;;;;;;;;;;;;;;24.15;44.86;101719.81;5056237;27;96890;-75
2021/08/14 05:02:49;;;;;;;;;;;;;;;24.47;44.32;101722.72;5056507;27;96795;-74
2021/08/14 05:05:15;;;;;;;;;;;;;;;24.46;44.41;101720.16;5055590;27;98929;-74
2021/08/14 05:07:41;;;;;;;;;;;;;;;24.03;45.05;101720.72;5055817;27;99099;-74
2021/08/14 05:10:12;;;;;;;;;;;;;;;24.14;45.01;101718.06;5056266;27;96802;-74
2021/08/14 05:12:39;;;;;;;;;;;;;;;24.58;44.03;101714.63;5056212;27;96946;-74
2021/08/14 05:15:06;;;;;;;;;;;;;;;24.64;44.14;101710.56;5054437;27;98887;-74
2021/08/14 05:17:32;;;;;;;;;;;;;;;24.64;43.90;101699.78;5054303;27;98966;-74
2021/08/14 05:19:58;;;;;;;;;;;;;;;25.00;43.19;101707.69;5057975;27;97031;-74
2021/08/14 05:22:24;;;;;;;;;;;;;;;25.17;42.99;101705.44;5058765;27;97700;-74
2021/08/14 05:24:51;;;;;;;;;;;;;;;25.27;43.17;101711.81;5056891;27;99321;-76
2021/08/14 05:27:18;;;;;;;;;;;;;;;25.30;43.03;101712.41;5056055;27;99150;-74
2021/08/14 05:29:44;;;;;;;;;;;;;;;25.69;42.39;101715.53;5040487;27;97534;-74
2021/08/14 05:32:11;;;;;;;;;;;;;;;25.83;42.56;101711.66;5055380;27;96889;-75
2021/08/14 05:34:37;;;;;;;;;;;;;;;25.88;42.03;101715.69;5054731;27;99267;-74
2021/08/14 05:37:03;;;;;;;;;;;;;;;25.93;42.46;101712.63;5056332;27;98813;-74
2021/08/14 05:39:29;;;;;;;;;;;;;;;25.93;42.30;101707.22;5043422;27;98013;-75
2021/08/14 05:41:56;;;;;;;;;;;;;;;25.75;42.12;101717.72;5053367;27;96973;-75
2021/08/14 05:44:23;;;;;;;;;;;;;;;25.74;42.41;101724.97;5052572;27;98977;-73
2021/08/14 05:46:49;;;;;;;;;;;;;;;25.55;42.70;101732.88;5056087;27;99325;-75
2021/08/14 05:49:16;;;;;;;;;;;;;;;25.85;42.24;101734.06;5054182;27;96662;-75
2021/08/14 05:51:42;;;;;;;;;;;;;;;25.88;42.07;101731.09;5054452;27;97511;-75
2021/08/14 05:54:08;;;;;;;;;;;;;;;26.03;41.65;101736.06;5054880;27;99483;-75
2021/08/14 05:56:35;;;;;;;;;;;;;;;26.33;40.80;101745.28;5054317;27;99173;-77
2021/08/14 05:59:02;;;;;;;;;;;;;;;26.34;40.59;101753.31;5055018;27;97512;-75
2021/08/14 06:01:30;;;;;;;;;;;;;;;26.46;40.46;101752.25;5057443;27;97019;-75
2021/08/14 06:03:56;;;;;;;;;;;;;;;25.66;41.55;101759.97;5052927;27;99044;-76
2021/08/14 06:06:22;;;;;;;;;;;;;;;25.85;41.22;101759.31;5054249;27;99853;-76
2021/08/14 06:08:49;;;;;;;;;;;;;;;25.79;41.12;101752.56;5055505;27;97493;-74
2021/08/14 06:11:15;;;;;;;;;;;;;;;26.69;39.20;101743.97;5055290;27;96939;-75
2021/08/14 06:13:41;;;;;;;;;;;;;;;26.58;39.39;101740.31;5053609;27;99386;-77
2021/08/14 06:16:09;;;;;;;;;;;;;;;26.53;39.32;101731.75;5054636;27;99460;-75
2021/08/14 06:18:40;;;;;;;;;;;;;;;26.78;39.22;101732.31;5053260;27;99069;-74
2021/08/14 06:21:06;;;;;;;;;;;;;;;26.77;39.11;101741.44;5056078;27;96827;-74
2021/08/14 06:23:33;;;;;;;;;;;;;;;26.90;38.90;101736.69;5055040;27;99232;-73
2021/08/14 06:25:59;;;;;;;;;;;;;;;26.74;39.02;101739.00;5049492;27;98819;-74
2021/08/14 06:28:25;;;;;;;;;;;;;;;26.45;39.73;101736.97;5054255;27;96983;-74
2021/08/14 06:30:51;;;;;;;;;;;;;;;26.51;39.93;101733.75;5053446;27;97688;-74
2021/08/14 06:33:18;;;;;;;;;;;;;;;26.29;40.32;101738.44;5054333;27;98882;-74
2021/08/14 06:35:45;;;;;;;;;;;;;;;26.16;41.08;101730.47;5053330;27;98766;-76
2021/08/14 06:38:13;;;;;;;;;;;;;;;26.43;40.12;101736.25;5054049;27;96938;-74
2021/08/14 06:40:39;;;;;;;;;;;;;;;26.71;39.45;101736.56;5054521;27;97040;-76
2021/08/14 06:43:05;;;;;;;;;;;;;;;26.77;39.59;101736.88;5046056;27;98956;-73
2021/08/14 06:45:31;;;;;;;;;;;;;;;26.89;39.37;101737.69;5054263;27;98782;-76
2021/08/14 06:47:57;;;;;;;;;;;;;;;26.86;39.00;101741.47;5051821;27;96828;-76
2021/08/14 06:50:24;;;;;;;;;;;;;;;26.94;38.86;101733.56;5053218;27;97509;-74
2021/08/14 06:52:51;;;;;;;;;;;;;;;27.02;38.71;101735.59;5053937;27;99203;-75
2021/08/14 06:55:18;;;;;;;;;;;;;;;27.44;38.49;101725.41;5052628;27;98037;-74
2021/08/14 06:57:44;;;;;;;;;;;;;;;27.16;38.22;101727.09;5052258;27;97722;-74
2021/08/14 07:00:11;;;;;;;;;;;;;;;26.98;39.03;101733.31;5050843;27;97060;-72
2021/08/14 07:02:37;;;;;;;;;;;;;;;27.01;38.87;101742.00;5054330;27;98891;-74
2021/08/14 07:05:04;;;;;;;;;;;;;;;26.90;38.74;101737.56;5052510;27;98884;-76
2021/08/14 07:07:30;;;;;;;;;;;;;;;26.84;39.19;101737.19;5053328;27;96855;-74
2021/08/14 07:09:58;;;;;;;;;;;;;;;26.62;38.42;101737.34;5053979;27;97324;-75
2021/08/14 07:12:24;;;;;;;;;;;;;;;26.45;39.68;101738.84;5055824;27;98931;-74
2021/08/14 07:14:50;;;;;;;;;;;;;;;26.83;37.78;101746.31;5048459;27;99519;-74
2021/08/14 07:17:17;;;;;;;;;;;;;;;26.91;37.87;101744.66;5048766;27;98486;-75
2021/08/14 07:19:43;;;;;;;;;;;;;;;26.92;37.72;101734.69;5055012;27;96938;-75
2021/08/14 07:22:09;;;;;;;;;;;;;;;26.93;37.46;101741.81;5058537;27;98859;-74
2021/08/14 07:24:35;;;;;;;;;;;;;;;26.45;38.14;101742.38;5058513;27;97914;-75
2021/08/14 07:27:03;;;;;;;;;;;;;;;26.84;37.74;101737.19;5053653;27;96869;-74
2021/08/14 07:29:29;;;;;;;;;;;;;;;26.33;39.20;101746.16;5048999;27;97162;-73
2021/08/14 07:31:56;;;;;;;;;;;;;;;27.05;37.90;101742.59;5049949;27;98896;-73
2021/08/14 07:34:22;;;;;;;;;;;;;;;27.46;37.31;101742.44;5050831;27;98862;-76
2021/08/14 07:36:49;;;;;;;;;;;;;;;27.60;36.93;101743.91;5050995;27;97131;-75
2021/08/14 07:39:16;;;;;;;;;;;;;;;27.76;35.95;101741.53;5051538;27;97255;-75
2021/08/14 07:41:42;;;;;;;;;;;;;;;28.48;35.19;101749.25;5049202;27;98838;-75
2021/08/14 07:44:09;;;;;;;;;;;;;;;28.45;34.78;101749.50;5051246;27;98907;-75
2021/08/14 07:46:36;;;;;;;;;;;;;;;27.77;35.53;101751.38;5048111;27;98549;-74
2021/08/14 07:49:02;;;;;;;;;;;;;;;27.74;35.53;101738.09;5049296;27;96796;-76
2021/08/14 07:51:28;;;;;;;;;;;;;;;27.35;36.23;101739.84;5051555;27;98858;-74
2021/08/14 07:53:54;;;;;;;;;;;;;;;27.96;35.35;101737.78;5047595;27;98807;-74
2021/08/14 07:56:21;;;;;;;;;;;;;;;28.17;35.02;101731.38;5043301;27;98882;-75
2021/08/14 07:58:48;;;;;;;;;;;;;;;28.21;34.93;101735.53;5053564;27;97343;-76
2021/08/14 08:01:15;;;;;;;;;;;;;;;28.60;34.43;101733.59;5051737;27;98940;-75
2021/08/14 08:03:41;;;;;;;;;;;;;;;28.56;34.10;101730.31;5038178;27;98614;-75
2021/08/14 08:06:08;;;;;;;;;;;;;;;28.20;34.00;101729.25;5057908;27;97270;-76
2021/08/14 08:08:34;;;;;;;;;;;;;;;27.32;35.55;101727.41;5057416;27;96769;-74
2021/08/14 08:11:01;;;;;;;;;;;;;;;27.88;35.21;101729.53;5056187;27;99023;-77
2021/08/14 08:13:27;;;;;;;;;;;;;;;28.43;34.10;101725.19;5057243;27;98813;-74
2021/08/14 08:15:53;;;;;;;;;;;;;;;27.62;35.54;101723.78;5056970;27;97101;-75
2021/08/14 08:18:23;;;;;;;;;;;;;;;28.41;34.59;101720.94;5057412;27;96946;-74
2021/08/14 08:20:50;;;;;;;;;;;;;;;28.62;34.05;101712.56;5056874;27;99118;-74
2021/08/14 08:23:16;;;;;;;;;;;;;;;28.42;34.19;101706.34;5058012;27;99243;-74
2021/08/14 08:25:43;;;;;;;;;;;;;;;28.30;34.43;101712.91;5058796;27;97181;-75
2021/08/14 08:28:09;;;;;;;;;;;;;;;28.22;34.14;101712.81;5065346;27;96788;-74
2021/08/14 08:30:36;;;;;;;;;;;;;;;27.84;34.96;101695.47;5056726;27;97906;-75
2021/08/14 08:33:02;;;;;;;;;;;;;;;28.14;34.72;101698.09;5056390;27;98870;-74
2021/08/14 08:35:29;;;;;;;;;;;;;;;28.76;33.48;101698.50;5054439;27;97072;-74
2021/08/14 08:37:56;;;;;;;;;;;;;;;29.15;32.52;101696.44;5056694;27;96916;-74
2021/08/14 08:40:22;;;;;;;;;;;;;;;29.06;32.95;101691.94;5054795;27;98211;-75
2021/08/14 08:42:49;;;;;;;;;;;;;;;29.28;32.59;101691.50;5056138;27;98808;-75
2021/08/14 08:45:15;;;;;;;;;;;;;;;29.67;31.90;101684.78;5050753;27;97326;-75
2021/08/14 08:47:42;;;;;;;;;;;;;;;29.76;31.78;101693.06;5056703;27;96874;-75
2021/08/14 08:50:10;;;;;;;;;;;;;;;29.30;32.16;101679.47;5055999;27;98876;-75
2021/08/14 08:52:38;;;;;;;;;;;;;;;29.39;31.90;101691.34;5056342;27;98982;-75
2021/08/14 08:55:05;;;;;;;;;;;;;;;29.55;31.44;101691.50;5056730;27;96847;-75
2021/08/14 08:57:31;;;;;;;;;;;;;;;28.67;32.64;101683.91;5056113;27;97284;-75
2021/08/14 08:59:58;;;;;;;;;;;;;;;28.51;32.37;101678.25;5055551;27;99044;-74
2021/08/14 09:02:25;;;;;;;;;;;;;;;28.96;31.99;101682.94;5056055;27;98896;-74
2021/08/14 09:05:16;;;;;;;;;;;;;;;29.37;31.38;101687.91;5056583;27;97356;-74
2021/08/14 09:07:44;;;;;;;;;;;;;;;29.01;31.49;101681.50;5053765;27;97005;-75
2021/08/14 09:10:12;;;;;;;;;;;;;;;28.88;31.51;101681.84;5055480;27;99024;-75
2021/08/14 09:12:41;;;;;;;;;;;;;;;29.07;31.29;101671.88;5055870;27;98736;-75
2021/08/14 09:15:08;;;;;;;;;;;;;;;28.71;31.96;101673.59;5056682;27;96855;-76
2021/08/14 09:17:34;;;;;;;;;;;;;;;29.33;30.94;101675.59;5055437;27;98129;-74
2021/08/14 09:20:08;;;;;;;;;;;;;;;29.18;31.57;101671.66;5055704;27;99124;-76
2021/08/14 09:22:34;;;;;;;;;;;;;;;28.67;32.26;101673.03;5055630;27;99469;-74
2021/08/14 09:25:12;;;;;;;;;;;;;;;28.51;33.01;101672.81;5055069;27;97145;-75
2021/08/14 09:27:48;;;;;;;;;;;;;;;29.15;31.83;101680.13;5054543;27;98785;-74
2021/08/14 09:30:15;;;;;;;;;;;;;;;29.48;30.75;101665.88;5050943;27;98961;-76
2021/08/14 09:32:41;;;;;;;;;;;;;;;28.73;32.48;101672.44;5053803;27;98794;-74
2021/08/14 09:35:08;;;;;;;;;;;;;;;28.18;33.64;101654.31;5053577;27;98756;-74
2021/08/14 09:37:35;;;;;;;;;;;;;;;28.61;32.50;101662.78;5054569;27;97272;-76
2021/08/14 09:40:02;;;;;;;;;;;;;;;28.77;32.07;101651.25;5054027;27;98895;-74
2021/08/14 09:42:29;;;;;;;;;;;;;;;28.80;32.06;101662.72;5043394;27;101665;-75
2021/08/14 09:45:13;;;;;;;;;;;;;;;29.06;31.50;101653.84;5053444;27;98794;-75
2021/08/14 09:47:39;;;;;;;;;;;;;;;29.23;29.99;101645.69;5056015;27;97008;-74
2021/08/14 09:50:06;;;;;;;;;;;;;;;29.07;30.26;101658.28;5045549;27;98924;-75
2021/08/14 09:52:32;;;;;;;;;;;;;;;29.01;30.63;101653.44;5051254;27;98809;-75
2021/08/14 09:54:59;;;;;;;;;;;;;;;28.88;31.07;101649.19;5054575;27;97232;-75
2021/08/14 09:57:25;;;;;;;;;;;;;;;28.70;31.78;101648.25;5058229;27;97749;-76
2021/08/14 09:59:53;;;;;;;;;;;;;;;28.18;32.27;101657.00;5053703;27;98903;-75
2021/08/14 10:02:22;;;;;;;;;;;;;;;28.56;32.01;101654.19;5053567;27;98863;-74
2021/08/14 10:04:49;;;;;;;;;;;;;;;28.63;31.83;101649.84;5058845;27;99019;-75
2021/08/14 10:07:16;;;;;;;;;;;;;;;28.75;31.57;101642.41;5057522;27;97169;-74
2021/08/14 10:09:42;;;;;;;;;;;;;;;29.27;30.79;101635.38;5059760;27;99109;-74
2021/08/14 10:12:10;;;;;;;;;;;;;;;29.23;31.12;101639.41;5055383;27;97280;-74
2021/08/14 10:14:37;;;;;;;;;;;;;;;29.27;30.89;101629.94;5052559;27;97036;-75
2021/08/14 10:17:06;;;;;;;;;;;;;;;29.41;31.21;101632.13;5050954;27;96979;-75
2021/08/14 10:19:32;;;;;;;;;;;;;;;29.61;30.68;101630.94;5048750;27;99063;-75
2021/08/14 10:21:58;;;;;;;;;;;;;;;29.62;30.21;101631.81;5054412;27;98868;-75
2021/08/14 10:24:25;;;;;;;;;;;;;;;29.58;30.30;101634.00;5055754;27;97085;-73
2021/08/14 10:27:03;;;;;;;;;;;;;;;29.12;31.13;101629.59;5053537;27;96892;-75
2021/08/14 10:29:46;;;;;;;;;;;;;;;29.71;30.09;101622.72;5051543;27;98928;-76
2021/08/14 10:32:35;;;;;;;;;;;;;;;29.67;30.32;101616.72;5054259;27;98083;-75
2021/08/14 10:35:17;;;;;;;;;;;;;;;29.76;30.34;101614.06;5055619;27;98949;-75
2021/08/14 10:37:43;;;;;;;;;;;;;;;29.15;31.08;101606.66;5051721;27;98715;-75
2021/08/14 10:40:10;;;;;;;;;;;;;;;29.17;31.25;101604.63;5052462;27;99304;-74
2021/08/14 10:42:53;;;;;;;;;;;;;;;29.18;31.54;101595.47;5052744;27;98995;-74
2021/08/14 10:45:20;;;;;;;;;;;;;;;29.47;30.76;101595.28;5053056;27;98752;-74
2021/08/14 10:47:50;;;;;;;;;;;;;;;28.78;31.46;101604.03;5052000;27;97165;-74
2021/08/14 10:50:35;;;;;;;;;;;;;;;28.40;31.67;101596.88;5054159;27;98897;-75
2021/08/14 10:53:15;;;;;;;;;;;;;;;28.69;31.53;101597.59;5053268;27;98176;-74
2021/08/14 10:55:42;;;;;;;;;;;;;;;29.02;31.28;101600.72;5053286;27;97723;-74
2021/08/14 10:58:16;;;;;;;;;;;;;;;29.38;30.61;101594.34;5058100;27;97283;-75
2021/08/14 11:00:43;;;;;;;;;;;;;;;29.86;30.53;101593.03;5056029;27;97835;-74
2021/08/14 11:03:13;;;;;;;;;;;;;;;29.83;30.41;101590.63;5057335;27;98933;-74
2021/08/14 11:05:41;;;;;;;;;;;;;;;29.60;30.06;101593.00;5053000;27;96918;-74
2021/08/14 11:08:28;;;;;;;;;;;;;;;29.35;30.45;101581.03;5050543;27;98340;-74
2021/08/14 11:10:55;;;;;;;;;;;;;;;30.22;29.54;101588.34;5058956;27;98949;-73
2021/08/14 11:13:36;;;;;;;;;;;;;;;30.04;29.20;101580.25;5053025;27;98788;-75
2021/08/14 11:16:03;;;;;;;;;;;;;;;30.34;28.89;101576.16;5045732;27;98925;-74
2021/08/14 11:18:44;;;;;;;;;;;;;;;30.13;28.99;101570.25;5049524;27;96931;-74
2021/08/14 11:21:11;;;;;;;;;;;;;;;30.63;28.33;101560.31;5049119;27;98953;-74
2021/08/14 11:23:56;;;;;;;;;;;;;;;30.61;28.04;101556.00;5052083;27;98899;-77
2021/08/14 11:26:31;;;;;;;;;;;;;;;30.22;29.05;101552.91;5050816;27;97971;-76
2021/08/14 11:28:58;;;;;;;;;;;;;;;29.99;28.45;101553.50;5051214;27;99449;-76
2021/08/14 11:31:25;;;;;;;;;;;;;;;30.06;28.28;101559.16;5049605;27;100237;-76
2021/08/14 11:33:59;;;;;;;;;;;;;;;29.81;28.56;101552.63;5049660;27;98066;-75
2021/08/14 11:36:29;;;;;;;;;;;;;;;29.54;28.94;101545.44;5048255;27;97480;-76
2021/08/14 11:39:00;;;;;;;;;;;;;;;29.26;28.99;101543.84;5048299;27;96932;-76
2021/08/14 11:41:27;;;;;;;;;;;;;;;29.23;29.50;101544.13;5049019;27;99145;-76
2021/08/14 11:43:53;;;;;;;;;;;;;;;29.10;29.23;101530.06;5049496;27;99395;-77
2021/08/14 11:46:23;;;;;;;;;;;;;;;29.56;29.32;101523.53;5048637;27;96935;-76
2021/08/14 11:48:50;;;;;;;;;;;;;;;29.27;29.41;101518.34;5050745;27;97326;-76
2021/08/14 11:51:17;;;;;;;;;;;;;;;29.61;28.57;101513.00;5048925;27;97436;-76
2021/08/14 11:53:44;;;;;;;;;;;;;;;29.73;28.82;101519.06;5050216;27;98793;-74
2021/08/14 11:56:12;;;;;;;;;;;;;;;29.81;28.44;101511.78;5049689;27;96830;-75
2021/08/14 11:58:39;;;;;;;;;;;;;;;29.64;28.95;101510.81;5048086;27;97245;-74
2021/08/14 12:01:06;;;;;;;;;;;;;;;29.78;28.94;101512.13;5049651;27;99268;-76
2021/08/14 12:03:32;;;;;;;;;;;;;;;30.02;28.83;101508.69;5049680;27;98832;-76
2021/08/14 12:06:06;;;;;;;;;;;;;;;30.00;28.08;101517.03;5050390;27;97380;-75
2021/08/14 12:08:33;;;;;;;;;;;;;;;29.85;28.83;101498.69;5049678;27;100758;-74
2021/08/14 12:11:02;;;;;;;;;;;;;;;29.95;28.90;101510.34;5048274;27;97703;-73
2021/08/14 12:13:29;;;;;;;;;;;;;;;29.73;27.63;101513.63;5047323;27;97588;-72
2021/08/14 12:16:09;;;;;;;;;;;;;;;29.86;27.26;101514.03;5049098;27;97302;-73
2021/08/14 12:18:36;;;;;;;;;;;;;;;29.46;27.52;101518.19;5047789;27;97119;-72
2021/08/14 12:21:03;;;;;;;;;;;;;;;29.23;27.23;101506.03;5047720;27;101730;-74
2021/08/14 12:23:30;;;;;;;;;;;;;;;28.76;28.94;101508.97;5049130;27;97694;-73
2021/08/14 12:25:57;;;;;;;;;;;;;;;28.50;28.88;101497.97;5048801;27;97609;-71
2021/08/14 12:28:29;;;;;;;;;;;;;;;29.64;27.37;101494.47;5047267;27;96889;-78
2021/08/14 12:30:56;;;;;;;;;;;;;;;29.68;27.87;101495.00;5045962;27;98032;-78
2021/08/14 12:33:25;;;;;;;;;;;;;;;30.02;27.26;101493.19;5050886;27;99031;-77
2021/08/14 12:38:47;;;;;;;;;;;;;;;30.23;27.06;101487.34;5055154;27;97287;-78
2021/08/14 12:41:14;;;;;;;;;;;;;;;30.71;26.83;101477.66;5050123;27;99512;-76